createdAt,value
2023-01-18T00:02:55.377Z,82.19
2023-01-18T00:06:16.541Z,82.02
2023-01-18T00:12:39.588Z,81.99
2023-01-18T00:15:44.552Z,81.91
2023-01-18T00:18:54.400Z,82.15
2023-01-18T00:22:22.294Z,81.91
2023-01-18T00:25:29.867Z,81.99
2023-01-18T00:28:36.915Z,81.97
2023-01-18T00:31:40.339Z,81.97
2023-01-18T00:34:43.057Z,82.04
2023-01-18T00:37:46.049Z,82.05
2023-01-18T00:40:53.415Z,82.13
2023-01-18T00:43:55.361Z,81.95
2023-01-18T00:47:00.308Z,81.98
2023-01-18T00:50:04.691Z,81.94
2023-01-18T00:53:07.342Z,82.16
2023-01-18T00:56:13.593Z,82.02
2023-01-18T00:59:17.400Z,82.26
2023-01-18T01:02:20.223Z,82.14
2023-01-18T01:05:43.454Z,81.93
2023-01-18T01:08:50.132Z,82.13
2023-01-18T01:12:13.174Z,82.28
2023-01-18T01:15:36.333Z,82.30
2023-01-18T01:18:56.366Z,82.59
2023-01-18T01:22:22.516Z,82.51
2023-01-18T01:25:42.656Z,82.40
2023-01-18T01:28:51.336Z,82.82
2023-01-18T01:31:54.043Z,82.33
2023-01-18T01:34:56.767Z,82.66
2023-01-18T01:37:59.468Z,82.60
2023-01-18T01:41:06.635Z,82.71
2023-01-18T01:44:52.336Z,82.79
2023-01-18T01:47:57.299Z,82.82
2023-01-18T01:51:08.353Z,82.93
2023-01-18T01:54:17.266Z,82.68
2023-01-18T01:57:23.865Z,82.81
2023-01-18T02:00:28.187Z,82.78
2023-01-18T02:03:34.093Z,82.79
2023-01-18T02:06:40.175Z,82.89
2023-01-18T02:09:42.934Z,82.92
2023-01-18T02:12:48.010Z,82.79
2023-01-18T02:16:00.133Z,82.77
2023-01-18T02:19:18.330Z,82.51
2023-01-18T02:22:49.079Z,82.13
2023-01-18T02:26:18.416Z,82.62
2023-01-18T02:29:36.701Z,82.40
2023-01-18T02:32:50.453Z,82.61
2023-01-18T02:35:56.179Z,82.27
2023-01-18T02:39:06.931Z,82.49
2023-01-18T02:42:36.691Z,82.17
2023-01-18T02:46:02.359Z,82.10
2023-01-18T02:49:10.783Z,82.09
2023-01-18T02:52:39.783Z,82.05
2023-01-18T02:55:48.085Z,81.98
2023-01-18T02:59:08.719Z,82.18
2023-01-18T03:02:17.247Z,81.96
2023-01-18T03:05:25.501Z,81.99
2023-01-18T03:08:36.447Z,81.90
2023-01-18T03:11:47.111Z,82.17
2023-01-18T03:15:01.993Z,82.13
2023-01-18T03:18:11.710Z,82.20
2023-01-18T03:21:14.572Z,82.02
2023-01-18T03:24:19.573Z,82.02
2023-01-18T03:27:40.238Z,82.34
2023-01-18T03:31:10.238Z,82.29
2023-01-18T03:34:22.533Z,82.20
2023-01-18T03:37:30.384Z,82.26
2023-01-18T03:40:33.068Z,82.14
2023-01-18T03:43:37.764Z,82.14
2023-01-18T03:46:43.739Z,82.69
2023-01-18T03:49:54.135Z,82.47
2023-01-18T03:53:07.078Z,82.91
2023-01-18T03:56:16.743Z,83.06
2023-01-18T03:59:19.413Z,83.50
2023-01-18T04:02:24.339Z,83.54
2023-01-18T04:05:28.473Z,83.47
2023-01-18T04:08:32.739Z,83.70
2023-01-18T04:11:38.450Z,83.78
2023-01-18T04:14:43.221Z,84.01
2023-01-18T04:17:49.799Z,83.91
2023-01-18T04:20:56.844Z,83.95
2023-01-18T04:24:02.248Z,84.18
2023-01-18T04:27:08.185Z,84.34
2023-01-18T04:30:13.392Z,84.58
2023-01-18T04:33:16.015Z,84.63
2023-01-18T04:36:22.836Z,84.85
2023-01-18T04:39:25.607Z,84.70
2023-01-18T04:42:31.673Z,85.01
2023-01-18T04:45:34.563Z,85.01
2023-01-18T04:48:37.184Z,84.94
2023-01-18T04:51:44.147Z,85.14
2023-01-18T04:54:46.819Z,85.09
2023-01-18T04:57:56.595Z,85.39
2023-01-18T05:01:12.362Z,85.02
2023-01-18T05:04:15.051Z,85.37
2023-01-18T05:07:19.036Z,85.30
2023-01-18T05:10:21.670Z,85.30
2023-01-18T05:13:24.666Z,85.45
2023-01-18T05:16:33.290Z,85.19
2023-01-18T05:19:35.997Z,85.36
2023-01-18T05:22:47.719Z,85.26
2023-01-18T05:25:53.767Z,85.39
2023-01-18T05:28:57.834Z,85.69
2023-01-18T05:32:00.574Z,85.51
2023-01-18T05:35:11.467Z,85.63
2023-01-18T05:38:15.467Z,85.44
2023-01-18T05:41:43.532Z,85.40
2023-01-18T05:44:46.380Z,85.35
2023-01-18T05:47:49.185Z,85.15
2023-01-18T05:50:58.253Z,85.79
2023-01-18T05:54:02.360Z,86.04
2023-01-18T05:57:04.992Z,85.88
2023-01-18T06:00:11.299Z,86.29
2023-01-18T06:03:13.948Z,86.57
2023-01-18T06:06:16.687Z,86.34
2023-01-18T06:09:20.666Z,86.52
2023-01-18T06:12:23.687Z,86.10
2023-01-18T06:15:29.375Z,86.10
2023-01-18T06:18:33.843Z,86.29
2023-01-18T06:21:36.493Z,86.00
2023-01-18T06:24:40.515Z,86.30
2023-01-18T06:27:43.380Z,86.36
2023-01-18T06:30:48.087Z,86.49
2023-01-18T06:33:51.229Z,86.93
2023-01-18T06:36:54.030Z,86.69
2023-01-18T06:39:58.207Z,87.10
2023-01-18T06:43:01.247Z,87.19
2023-01-18T06:46:07.570Z,87.10
2023-01-18T06:49:11.186Z,87.21
2023-01-18T06:52:13.921Z,87.25
2023-01-18T06:55:19.700Z,87.17
2023-01-18T06:58:22.387Z,86.98
2023-01-18T07:01:25.341Z,87.14
2023-01-18T07:04:28.484Z,87.32
2023-01-18T07:07:31.203Z,87.30
2023-01-18T07:10:35.208Z,87.35
2023-01-18T07:13:40.150Z,87.12
2023-01-18T07:16:45.626Z,86.89
2023-01-18T07:19:48.342Z,86.87
2023-01-18T07:22:52.681Z,87.14
2023-01-18T07:26:01.569Z,87.09
2023-01-18T07:29:06.520Z,87.13
2023-01-18T07:32:09.247Z,86.69
2023-01-18T07:35:12.034Z,86.87
2023-01-18T07:38:15.507Z,87.05
2023-01-18T07:41:19.575Z,87.27
2023-01-18T07:44:22.275Z,86.97
2023-01-18T07:47:24.924Z,86.89
2023-01-18T07:50:30.380Z,87.24
2023-01-18T07:53:34.708Z,87.26
2023-01-18T07:56:41.318Z,87.97
2023-01-18T07:59:46.401Z,87.91
2023-01-18T08:02:51.389Z,88.32
2023-01-18T08:05:54.014Z,89.52
2023-01-18T08:08:59.905Z,90.83
2023-01-18T08:12:04.247Z,90.17
2023-01-18T08:15:08.011Z,89.86
2023-01-18T08:18:10.615Z,89.84
2023-01-18T08:21:16.156Z,90.35
2023-01-18T08:24:18.769Z,89.97
2023-01-18T08:27:27.146Z,88.49
2023-01-18T08:30:32.311Z,88.79
2023-01-18T08:33:40.954Z,88.69
2023-01-18T08:36:43.634Z,88.47
2023-01-18T08:39:46.385Z,88.43
2023-01-18T08:42:51.126Z,88.31
2023-01-18T08:45:53.914Z,88.02
2023-01-18T08:48:59.203Z,87.53
2023-01-18T08:52:01.836Z,87.33
2023-01-18T08:55:05.394Z,86.82
2023-01-18T08:58:12.015Z,86.46
2023-01-18T09:01:17.681Z,86.25
2023-01-18T09:04:24.824Z,85.59
2023-01-18T09:07:27.755Z,85.74
2023-01-18T09:10:32.725Z,85.89
2023-01-18T09:13:47.823Z,86.04
2023-01-18T09:17:01.687Z,85.59
2023-01-18T09:20:09.675Z,85.15
2023-01-18T09:23:14.235Z,85.32
2023-01-18T09:26:20.647Z,85.06
2023-01-18T09:29:29.167Z,84.75
2023-01-18T09:32:34.872Z,84.55
2023-01-18T09:35:45.298Z,84.45
2023-01-18T09:38:47.986Z,84.52
2023-01-18T09:41:55.413Z,84.05
2023-01-18T09:45:03.466Z,83.89
2023-01-18T09:48:11.288Z,83.62
2023-01-18T09:51:20.748Z,84.19
2023-01-18T09:54:38.130Z,84.25
2023-01-18T09:57:55.279Z,83.79
2023-01-18T10:01:13.083Z,84.26
2023-01-18T10:04:21.138Z,84.15
2023-01-18T10:07:29.601Z,84.58
2023-01-18T10:10:37.284Z,84.66
2023-01-18T10:13:48.719Z,84.51
2023-01-18T10:16:57.537Z,84.25
2023-01-18T10:20:01.822Z,83.96
2023-01-18T10:23:17.027Z,83.42
2023-01-18T10:26:27.123Z,83.71
2023-01-18T10:29:45.323Z,83.81
2023-01-18T10:32:54.793Z,83.71
2023-01-18T10:36:02.071Z,83.32
2023-01-18T10:39:13.834Z,83.21
2023-01-18T10:42:25.774Z,83.46
2023-01-18T10:45:32.094Z,83.36
2023-01-18T10:48:36.378Z,82.83
2023-01-18T10:51:48.245Z,82.38
2023-01-18T10:54:55.740Z,82.29
2023-01-18T10:57:59.259Z,81.97
2023-01-18T11:01:06.646Z,81.72
2023-01-18T11:04:21.920Z,81.06
2023-01-18T11:07:31.217Z,81.02
2023-01-18T11:10:37.972Z,81.02
2023-01-18T11:13:43.901Z,80.94
2023-01-18T11:16:58.682Z,81.09
2023-01-18T11:20:08.722Z,80.27
2023-01-18T11:23:22.500Z,79.55
2023-01-18T11:26:29.556Z,79.25
2023-01-18T11:29:35.135Z,77.45
2023-01-18T11:32:40.816Z,77.68
2023-01-18T11:35:45.565Z,77.56
2023-01-18T11:38:48.897Z,77.03
2023-01-18T11:42:25.921Z,77.13
2023-01-18T11:45:34.163Z,77.08
2023-01-18T11:48:43.287Z,77.49
2023-01-18T11:51:53.073Z,77.03
2023-01-18T11:54:59.522Z,76.84
2023-01-18T11:58:02.705Z,76.81
2023-01-18T12:01:25.769Z,76.64
2023-01-18T12:04:42.720Z,75.60
2023-01-18T12:08:01.443Z,75.61
2023-01-18T12:11:18.675Z,75.25
2023-01-18T12:14:43.490Z,74.94
2023-01-18T12:18:12.834Z,74.98
2023-01-18T12:21:26.641Z,74.71
2023-01-18T12:24:41.858Z,74.70
2023-01-18T12:27:52.013Z,74.68
2023-01-18T12:31:10.043Z,74.16
2023-01-18T12:34:23.610Z,73.26
2023-01-18T12:37:38.996Z,70.92
2023-01-18T12:40:54.677Z,69.98
2023-01-18T12:44:15.515Z,70.05
2023-01-18T12:47:39.459Z,71.32
2023-01-18T12:50:44.500Z,72.22
2023-01-18T12:53:50.971Z,72.61
2023-01-18T12:56:57.150Z,72.82
2023-01-18T13:00:07.017Z,72.99
2023-01-18T13:03:15.609Z,72.09
2023-01-18T13:06:21.426Z,72.40
2023-01-18T13:09:28.519Z,72.24
2023-01-18T13:12:33.139Z,69.82
2023-01-18T13:15:44.529Z,70.86
2023-01-18T13:18:56.503Z,71.23
2023-01-18T13:22:07.520Z,71.14
2023-01-18T13:25:39.913Z,71.80
2023-01-18T13:28:53.795Z,71.59
2023-01-18T13:31:57.548Z,70.68
2023-01-18T13:35:18.927Z,68.97
2023-01-18T13:38:40.978Z,69.18
2023-01-18T13:42:09.956Z,70.23
2023-01-18T13:45:18.537Z,70.49
2023-01-18T13:48:46.372Z,69.93
2023-01-18T13:51:53.905Z,70.17
2023-01-18T13:55:25.999Z,69.43
2023-01-18T13:58:31.101Z,69.78
2023-01-18T14:01:37.774Z,69.67
2023-01-18T14:04:40.832Z,67.85
2023-01-18T14:07:46.991Z,68.17
2023-01-18T14:10:53.006Z,69.94
2023-01-18T14:14:05.501Z,70.31
2023-01-18T14:17:16.490Z,69.95
2023-01-18T14:20:43.691Z,70.17
2023-01-18T14:24:22.146Z,70.70
2023-01-18T14:27:28.512Z,71.36
2023-01-18T14:30:34.159Z,71.00
2023-01-18T14:33:41.253Z,71.32
2023-01-18T14:36:44.146Z,72.90
2023-01-18T14:39:46.783Z,74.30
2023-01-18T14:42:53.425Z,75.44
2023-01-18T14:46:01.049Z,76.64
2023-01-18T14:49:05.107Z,77.28
2023-01-18T14:52:08.667Z,77.38
2023-01-18T14:55:24.739Z,78.13
2023-01-18T14:58:28.451Z,78.71
2023-01-18T15:01:33.972Z,79.64
2023-01-18T15:04:40.158Z,80.57
2023-01-18T15:07:46.413Z,81.81
2023-01-18T15:10:49.750Z,82.42
2023-01-18T15:13:55.985Z,82.84
2023-01-18T15:17:01.910Z,83.39
2023-01-18T15:20:09.654Z,82.99
2023-01-18T15:23:13.672Z,82.91
2023-01-18T15:26:16.352Z,83.01
2023-01-18T15:29:20.905Z,83.19
2023-01-18T15:32:26.033Z,83.19
2023-01-18T15:35:31.088Z,83.24
2023-01-18T15:38:34.236Z,83.55
2023-01-18T15:41:36.968Z,83.46
2023-01-18T15:44:48.889Z,83.62
2023-01-18T15:47:54.445Z,83.78
2023-01-18T15:51:07.396Z,83.72
2023-01-18T15:54:17.416Z,84.22
2023-01-18T15:57:21.465Z,84.51
2023-01-18T16:00:34.504Z,84.47
2023-01-18T16:03:40.899Z,85.13
2023-01-18T16:06:45.609Z,85.14
2023-01-18T16:09:49.214Z,85.39
2023-01-18T16:12:51.895Z,85.32
2023-01-18T16:16:18.101Z,85.35
2023-01-18T16:19:31.776Z,85.58
2023-01-18T16:22:37.227Z,85.78
2023-01-18T16:25:40.274Z,85.95
2023-01-18T16:28:50.562Z,86.21
2023-01-18T16:31:53.428Z,86.41
2023-01-18T16:34:57.683Z,86.43
2023-01-18T16:38:02.448Z,86.74
2023-01-18T16:41:05.331Z,86.91
2023-01-18T16:44:08.032Z,86.83
2023-01-18T16:47:11.470Z,87.06
2023-01-18T16:50:19.617Z,87.27
2023-01-18T16:53:30.082Z,87.31
2023-01-18T16:56:39.893Z,87.44
2023-01-18T16:59:43.534Z,87.72
2023-01-18T17:02:48.361Z,87.54
2023-01-18T17:05:51.451Z,87.67
2023-01-18T17:08:55.513Z,87.59
2023-01-18T17:11:58.156Z,87.79
2023-01-18T17:15:00.915Z,87.83
2023-01-18T17:18:04.594Z,87.91
2023-01-18T17:21:11.327Z,87.99
2023-01-18T17:24:15.577Z,87.95
2023-01-18T17:27:20.392Z,88.08
2023-01-18T17:30:23.743Z,88.19
2023-01-18T17:33:26.898Z,88.15
2023-01-18T17:36:29.663Z,88.43
2023-01-18T17:39:43.037Z,88.48
2023-01-18T17:42:56.320Z,88.75
2023-01-18T17:46:02.010Z,88.82
2023-01-18T17:49:05.441Z,88.75
2023-01-18T17:52:08.677Z,88.95
2023-01-18T17:55:15.190Z,89.01
2023-01-18T17:58:17.957Z,88.94
2023-01-18T18:01:21.305Z,88.97
2023-01-18T18:04:24.593Z,89.32
2023-01-18T18:07:31.726Z,89.79
2023-01-18T18:10:35.753Z,89.96
2023-01-18T18:13:39.156Z,90.16
2023-01-18T18:16:43.819Z,90.13
2023-01-18T18:19:46.659Z,90.36
2023-01-18T18:22:49.316Z,90.26
2023-01-18T18:25:53.329Z,90.41
2023-01-18T18:28:55.980Z,90.63
2023-01-18T18:31:58.625Z,90.69
2023-01-18T18:35:03.842Z,90.52
2023-01-18T18:38:08.075Z,90.27
2023-01-18T18:41:12.101Z,90.32
2023-01-18T18:44:14.891Z,90.35
2023-01-18T18:47:17.705Z,90.37
2023-01-18T18:50:20.489Z,90.29
2023-01-18T18:53:29.689Z,90.39
2023-01-18T18:56:41.554Z,90.61
2023-01-18T18:59:44.263Z,90.29
2023-01-18T19:02:47.381Z,90.48
2023-01-18T19:05:51.761Z,90.67
2023-01-18T19:08:54.863Z,90.49
2023-01-18T19:11:58.965Z,90.48
2023-01-18T19:15:01.614Z,90.26
2023-01-18T19:18:04.612Z,90.37
2023-01-18T19:21:07.666Z,90.47
2023-01-18T19:24:10.805Z,90.71
2023-01-18T19:27:14.841Z,90.76
2023-01-18T19:30:20.335Z,90.78
2023-01-18T19:33:23.254Z,90.66
2023-01-18T19:36:26.456Z,90.96
2023-01-18T19:39:29.421Z,90.65
2023-01-18T19:42:33.840Z,90.61
2023-01-18T19:45:38.876Z,90.58
2023-01-18T19:48:41.992Z,90.67
2023-01-18T19:51:47.471Z,90.92
2023-01-18T19:54:50.196Z,90.56
2023-01-18T19:57:57.800Z,90.70
2023-01-18T20:01:01.188Z,91.00
2023-01-18T20:04:04.800Z,90.97
2023-01-18T20:07:11.075Z,90.74
2023-01-18T20:10:14.002Z,90.74
2023-01-18T20:13:18.926Z,90.89
2023-01-18T20:16:22.348Z,90.84
2023-01-18T20:19:25.361Z,90.98
2023-01-18T20:22:28.120Z,90.75
2023-01-18T20:25:31.570Z,90.86
2023-01-18T20:28:36.568Z,90.91
2023-01-18T20:31:41.997Z,90.95
2023-01-18T20:34:46.879Z,90.90
2023-01-18T20:37:54.453Z,90.91
2023-01-18T20:40:57.450Z,90.84
2023-01-18T20:44:02.125Z,90.89
2023-01-18T20:47:12.537Z,91.17
2023-01-18T20:50:24.376Z,90.94
2023-01-18T20:53:27.312Z,90.61
2023-01-18T20:56:31.999Z,90.88
2023-01-18T20:59:36.430Z,90.78
2023-01-18T21:02:39.543Z,90.76
2023-01-18T21:05:43.524Z,91.01
2023-01-18T21:08:46.258Z,91.04
2023-01-18T21:11:49.026Z,90.98
2023-01-18T21:14:53.194Z,90.88
2023-01-18T21:18:04.326Z,91.01
2023-01-18T21:21:09.616Z,90.88
2023-01-18T21:24:12.392Z,90.93
2023-01-18T21:27:16.777Z,90.80
2023-01-18T21:30:21.629Z,90.99
2023-01-18T21:33:33.745Z,90.79
2023-01-18T21:36:37.351Z,90.85
2023-01-18T21:39:40.336Z,90.89
2023-01-18T21:43:00.841Z,90.96
2023-01-18T21:46:10.238Z,90.74
2023-01-18T21:50:04.077Z,90.82
2023-01-18T21:53:17.167Z,90.62
2023-01-18T21:56:20.034Z,90.70
2023-01-18T21:59:22.867Z,90.64
2023-01-18T22:02:27.398Z,90.74
2023-01-18T22:05:32.403Z,90.79
2023-01-18T22:08:38.242Z,90.47
2023-01-18T22:11:41.331Z,90.79
2023-01-18T22:14:44.279Z,90.58
2023-01-18T22:17:54.660Z,90.60
2023-01-18T22:20:57.497Z,90.68
2023-01-18T22:24:00.918Z,90.58
2023-01-18T22:27:04.643Z,90.60
2023-01-18T22:30:11.156Z,90.46
2023-01-18T22:33:17.530Z,90.42
2023-01-18T22:36:20.361Z,90.72
2023-01-18T22:39:25.562Z,90.58
2023-01-18T22:42:28.359Z,90.85
2023-01-18T22:45:31.250Z,90.89
2023-01-18T22:48:36.966Z,90.78
2023-01-18T22:51:39.694Z,90.96
2023-01-18T22:54:42.529Z,90.83
2023-01-18T22:57:45.292Z,90.78
2023-01-18T23:01:00.323Z,90.61
2023-01-18T23:04:07.956Z,90.43
2023-01-18T23:07:14.178Z,91.04
2023-01-18T23:10:18.695Z,92.40
2023-01-18T23:13:21.355Z,93.30
2023-01-18T23:16:44.595Z,93.32
2023-01-18T23:19:48.852Z,93.23
2023-01-18T23:22:51.573Z,93.18
2023-01-18T23:25:58.170Z,93.09
2023-01-18T23:29:05.218Z,92.85
2023-01-18T23:32:11.258Z,92.68
2023-01-18T23:35:15.277Z,92.29
2023-01-18T23:38:24.183Z,92.43
2023-01-18T23:41:46.898Z,91.99
2023-01-18T23:45:16.034Z,92.29
2023-01-18T23:48:38.168Z,92.61
2023-01-18T23:51:59.545Z,92.62
2023-01-18T23:55:04.539Z,92.50
2023-01-18T23:58:10.250Z,93.33
